createdAt,value
2018-09-09T00:00:07.819Z,2.70
2018-09-09T00:05:17.523Z,2.47
2018-09-09T00:10:23.718Z,2.40
2018-09-09T00:15:26.994Z,2.27
2018-09-09T00:20:30.035Z,2.40
2018-09-09T00:25:33.335Z,2.00
2018-09-09T00:30:36.432Z,2.13
2018-09-09T00:35:51.707Z,2.30
2018-09-09T00:40:56.008Z,2.43
2018-09-09T00:45:59.029Z,2.37
2018-09-09T00:51:10.359Z,2.20
2018-09-09T00:56:18.438Z,2.57
2018-09-09T01:01:23.130Z,2.10
2018-09-09T01:06:26.179Z,2.37
2018-09-09T01:11:29.280Z,2.50
2018-09-09T01:16:32.497Z,2.30
2018-09-09T01:21:36.365Z,2.70
2018-09-09T01:26:43.553Z,2.90
2018-09-09T01:31:51.735Z,2.63
2018-09-09T01:36:56.262Z,2.47
2018-09-09T01:41:59.295Z,2.80
2018-09-09T01:47:04.386Z,2.83
2018-09-09T01:52:11.162Z,2.70
2018-09-09T01:57:19.416Z,2.90
2018-09-09T02:02:22.664Z,2.67
2018-09-09T02:07:25.734Z,2.70
2018-09-09T02:12:28.762Z,2.97
2018-09-09T02:17:32.198Z,2.80
2018-09-09T02:22:37.230Z,2.80
2018-09-09T02:27:42.450Z,2.80
2018-09-09T02:32:48.521Z,3.07
2018-09-09T02:37:52.483Z,3.40
2018-09-09T02:42:55.514Z,3.07
2018-09-09T02:47:58.539Z,3.10
2018-09-09T02:53:01.570Z,2.97
2018-09-09T02:58:04.746Z,3.33
2018-09-09T03:03:07.825Z,3.53
2018-09-09T03:08:15.380Z,3.60
2018-09-09T03:13:20.329Z,3.70
2018-09-09T03:18:24.306Z,3.47
2018-09-09T03:23:28.209Z,3.20
2018-09-09T03:28:32.026Z,2.80
2018-09-09T03:33:35.019Z,3.60
2018-09-09T03:38:41.298Z,3.40
2018-09-09T03:43:49.306Z,4.37
2018-09-09T03:48:54.287Z,3.53
2018-09-09T03:53:57.309Z,3.47
2018-09-09T03:59:00.562Z,3.47
2018-09-09T04:04:03.625Z,3.50
2018-09-09T04:09:12.127Z,3.67
2018-09-09T04:14:19.404Z,3.40
2018-09-09T04:19:23.985Z,3.00
2018-09-09T04:24:27.034Z,3.93
2018-09-09T04:29:30.030Z,3.50
2018-09-09T04:34:33.049Z,3.63
2018-09-09T04:39:36.186Z,3.50
2018-09-09T04:44:45.599Z,3.37
2018-09-09T04:49:53.653Z,3.37
2018-09-09T04:54:56.766Z,3.40
2018-09-09T04:59:59.808Z,4.10
2018-09-09T05:05:02.964Z,3.60
2018-09-09T05:10:06.143Z,3.40
2018-09-09T05:15:14.280Z,3.70
2018-09-09T05:20:20.242Z,3.40
2018-09-09T05:25:26.497Z,3.43
2018-09-09T05:30:30.904Z,3.50
2018-09-09T05:35:34.072Z,3.57
2018-09-09T05:40:45.144Z,4.27
2018-09-09T05:45:49.997Z,3.80
2018-09-09T05:50:53.110Z,3.63
2018-09-09T05:55:56.211Z,3.93
2018-09-09T06:00:59.418Z,4.00
2018-09-09T06:06:03.257Z,3.93
2018-09-09T06:11:08.156Z,4.43
2018-09-09T06:16:18.743Z,4.87
2018-09-09T06:21:23.838Z,3.73
2018-09-09T06:26:26.978Z,3.80
2018-09-09T06:31:30.091Z,3.50
2018-09-09T06:36:33.194Z,3.27
2018-09-09T06:41:37.348Z,3.70
2018-09-09T06:46:46.839Z,3.90
2018-09-09T06:51:52.572Z,4.10
2018-09-09T06:56:55.703Z,4.70
2018-09-09T07:01:58.740Z,3.60
2018-09-09T07:07:01.760Z,3.67
2018-09-09T07:12:06.184Z,3.90
2018-09-09T07:17:10.431Z,3.67
2018-09-09T07:22:15.093Z,4.20
2018-09-09T07:27:19.429Z,3.97
2018-09-09T07:32:22.624Z,3.70
2018-09-09T07:37:25.743Z,3.80
2018-09-09T07:42:29.898Z,3.57
2018-09-09T07:47:33.962Z,2.90
2018-09-09T07:52:37.130Z,3.83
2018-09-09T07:57:42.903Z,3.20
2018-09-09T08:02:48.548Z,4.30
2018-09-09T08:07:53.493Z,3.97
2018-09-09T08:12:56.589Z,4.50
2018-09-09T08:17:59.580Z,3.60
2018-09-09T08:23:02.650Z,4.50
2018-09-09T08:28:05.711Z,3.70
2018-09-09T08:33:08.736Z,3.83
2018-09-09T08:38:15.907Z,3.90
2018-09-09T08:43:20.765Z,3.50
2018-09-09T08:48:24.422Z,3.63
2018-09-09T08:53:27.429Z,3.13
2018-09-09T08:58:30.488Z,2.80
2018-09-09T09:03:34.530Z,2.77
2018-09-09T09:08:37.682Z,2.57
2018-09-09T09:13:47.013Z,2.70
2018-09-09T09:18:51.065Z,2.20
2018-09-09T09:23:54.074Z,1.77
2018-09-09T09:28:57.105Z,1.83
2018-09-09T09:34:00.147Z,2.00
2018-09-09T09:39:06.494Z,2.00
2018-09-09T09:44:15.264Z,1.87
2018-09-09T09:49:20.200Z,1.60
2018-09-09T09:54:24.123Z,1.57
2018-09-09T09:59:27.146Z,2.30
2018-09-09T10:04:30.162Z,1.90
2018-09-09T10:09:33.212Z,2.00
2018-09-09T10:14:37.098Z,2.03
2018-09-09T10:19:44.902Z,2.60
2018-09-09T10:24:50.321Z,1.80
2018-09-09T10:29:54.970Z,1.83
2018-09-09T10:35:04.437Z,1.60
2018-09-09T10:40:07.679Z,1.20
2018-09-09T10:45:10.713Z,1.27
2018-09-09T10:50:13.781Z,1.30
2018-09-09T10:55:16.834Z,1.60
2018-09-09T11:00:21.339Z,1.80
2018-09-09T11:05:24.733Z,1.50
2018-09-09T11:10:27.872Z,1.83
2018-09-09T11:15:30.904Z,2.43
2018-09-09T11:20:33.999Z,2.40
2018-09-09T11:25:38.686Z,1.70
2018-09-09T11:30:47.050Z,1.67
2018-09-09T11:35:50.859Z,2.10
2018-09-09T11:40:55.119Z,2.00
2018-09-09T11:45:58.584Z,2.27
2018-09-09T11:51:02.047Z,1.83
2018-09-09T11:56:05.473Z,1.90
2018-09-09T12:01:08.620Z,1.93
2018-09-09T12:06:11.675Z,1.50
2018-09-09T12:11:16.494Z,1.63
2018-09-09T12:16:24.994Z,2.00
2018-09-09T12:21:29.471Z,1.73
2018-09-09T12:26:32.534Z,1.73
2018-09-09T12:31:35.585Z,1.70
2018-09-09T12:36:38.644Z,1.90
2018-09-09T12:41:41.634Z,1.73
2018-09-09T12:46:52.599Z,1.80
2018-09-09T12:51:56.735Z,2.00
2018-09-09T12:57:01.443Z,1.60
2018-09-09T13:02:04.618Z,1.30
2018-09-09T13:07:07.724Z,1.20
2018-09-09T13:12:10.783Z,1.60
2018-09-09T13:17:13.819Z,1.40
2018-09-09T13:22:17.631Z,1.10
2018-09-09T13:27:22.868Z,1.63
2018-09-09T13:32:28.686Z,1.50
2018-09-09T13:37:32.208Z,1.67
2018-09-09T13:42:37.445Z,1.40
2018-09-09T13:47:41.414Z,1.13
2018-09-09T13:52:45.395Z,1.00
2018-09-09T13:57:49.216Z,1.87
2018-09-09T14:02:52.433Z,1.50
2018-09-09T14:07:55.478Z,1.40
2018-09-09T14:12:58.660Z,1.30
2018-09-09T14:18:01.694Z,1.53
2018-09-09T14:23:09.966Z,1.30
2018-09-09T14:28:14.596Z,1.30
2018-09-09T14:33:18.170Z,1.03
2018-09-09T14:38:21.362Z,1.10
2018-09-09T14:43:24.423Z,1.13
2018-09-09T14:48:27.489Z,1.23
2018-09-09T14:53:32.113Z,1.50
2018-09-09T14:58:42.749Z,1.50
2018-09-09T15:03:47.313Z,1.10
2018-09-09T15:08:50.469Z,1.60
2018-09-09T15:13:53.569Z,1.10
2018-09-09T15:18:56.616Z,1.23
2018-09-09T15:24:00.034Z,1.10
2018-09-09T15:29:07.360Z,1.33
2018-09-09T15:34:11.877Z,1.27
2018-09-09T15:39:17.081Z,1.00
2018-09-09T15:44:20.355Z,0.90
2018-09-09T15:49:23.415Z,1.10
2018-09-09T15:54:26.632Z,1.00
2018-09-09T15:59:29.887Z,1.10
2018-09-09T16:04:32.920Z,1.20
2018-09-09T16:09:41.916Z,1.20
2018-09-09T16:14:45.379Z,1.30
2018-09-09T16:19:49.010Z,1.60
2018-09-09T16:24:52.068Z,1.27
2018-09-09T16:29:55.110Z,1.40
2018-09-09T16:34:58.157Z,1.00
2018-09-09T16:40:02.900Z,1.30
2018-09-09T16:45:12.877Z,1.27
2018-09-09T16:50:18.285Z,1.17
2018-09-09T16:55:21.314Z,1.20
2018-09-09T17:00:24.350Z,1.60
2018-09-09T17:05:29.332Z,1.20
2018-09-09T17:10:35.772Z,1.07
2018-09-09T17:15:42.598Z,1.23
2018-09-09T17:20:45.624Z,1.40
2018-09-09T17:25:49.953Z,1.63
2018-09-09T17:30:52.973Z,1.97
2018-09-09T17:35:56.347Z,1.60
2018-09-09T17:40:59.378Z,2.10
2018-09-09T17:46:02.538Z,1.50
2018-09-09T17:51:09.756Z,1.50
2018-09-09T17:56:14.321Z,1.57
2018-09-09T18:01:19.551Z,1.50
2018-09-09T18:06:22.929Z,1.70
2018-09-09T18:11:26.251Z,1.83
2018-09-09T18:16:29.251Z,1.30
2018-09-09T18:21:32.258Z,1.40
2018-09-09T18:26:36.741Z,1.80
2018-09-09T18:31:42.310Z,1.90
2018-09-09T18:36:46.092Z,1.80
2018-09-09T18:41:49.506Z,1.87
2018-09-09T18:46:53.333Z,2.70
2018-09-09T18:51:56.334Z,2.20
2018-09-09T18:56:59.338Z,1.90
2018-09-09T19:02:02.362Z,1.60
2018-09-09T19:07:06.822Z,1.73
2018-09-09T19:12:12.153Z,1.40
2018-09-09T19:17:16.006Z,1.50
2018-09-09T19:22:19.105Z,2.13
2018-09-09T19:27:22.145Z,1.60
2018-09-09T19:32:25.385Z,6.40
2018-09-09T19:37:28.508Z,3.73
2018-09-09T19:42:36.940Z,1.53
2018-09-09T19:47:41.959Z,1.77
2018-09-09T19:52:45.503Z,1.73
2018-09-09T19:57:48.552Z,1.50
2018-09-09T20:02:51.667Z,2.10
2018-09-09T20:07:54.714Z,1.50
2018-09-09T20:12:57.708Z,2.17
2018-09-09T20:18:00.750Z,2.00
2018-09-09T20:23:03.822Z,2.50
2018-09-09T20:28:09.776Z,11.00
2018-09-09T20:33:13.921Z,3.00
2018-09-09T20:38:17.086Z,5.13
2018-09-09T20:43:20.165Z,1.90
2018-09-09T20:48:23.202Z,1.33
2018-09-09T20:53:26.582Z,1.63
2018-09-09T20:58:29.647Z,1.70
2018-09-09T21:03:32.734Z,1.33
2018-09-09T21:08:40.326Z,2.07
2018-09-09T21:13:44.473Z,1.73
2018-09-09T21:18:48.569Z,2.10
2018-09-09T21:23:51.619Z,2.10
2018-09-09T21:28:54.726Z,1.70
2018-09-09T21:33:58.607Z,2.00
2018-09-09T21:39:02.771Z,1.93
2018-09-09T21:44:08.117Z,2.00
2018-09-09T21:49:14.637Z,1.80
2018-09-09T21:54:18.979Z,2.03
2018-09-09T21:59:22.088Z,2.03
2018-09-09T22:04:25.114Z,1.80
2018-09-09T22:09:28.161Z,2.60
2018-09-09T22:14:31.177Z,1.80
2018-09-09T22:19:34.216Z,1.70
2018-09-09T22:24:41.050Z,2.20
2018-09-09T22:29:45.409Z,1.70
2018-09-09T22:34:49.196Z,2.13
2018-09-09T22:39:52.258Z,2.00
2018-09-09T22:44:55.313Z,1.97
2018-09-09T22:49:58.386Z,1.70
2018-09-09T22:55:01.426Z,2.17
2018-09-09T23:00:12.720Z,1.60
2018-09-09T23:05:16.917Z,1.90
2018-09-09T23:10:19.986Z,2.10
2018-09-09T23:15:26.428Z,2.00
2018-09-09T23:20:29.523Z,1.93
2018-09-09T23:25:32.569Z,2.00
2018-09-09T23:30:40.307Z,2.23
2018-09-09T23:35:44.440Z,1.97
2018-09-09T23:40:48.742Z,2.00
2018-09-09T23:45:51.779Z,2.20
2018-09-09T23:50:54.800Z,1.80
2018-09-09T23:55:57.887Z,1.90
